createdAt,value
2018-02-18T00:00:23.442Z,65.50
2018-02-18T00:02:49.914Z,59.37
2018-02-18T00:05:16.313Z,59.70
2018-02-18T00:07:42.705Z,54.53
2018-02-18T00:10:09.181Z,52.77
2018-02-18T00:12:35.709Z,51.83
2018-02-18T00:15:12.026Z,50.87
2018-02-18T00:17:38.378Z,47.47
2018-02-18T00:20:04.821Z,45.60
2018-02-18T00:22:31.193Z,43.93
2018-02-18T00:24:57.569Z,42.80
2018-02-18T00:27:24.042Z,41.70
2018-02-18T00:29:50.402Z,41.67
2018-02-18T00:32:16.963Z,42.33
2018-02-18T00:34:43.414Z,39.57
2018-02-18T00:37:09.804Z,40.30
2018-02-18T00:39:36.341Z,38.03
2018-02-18T00:42:02.854Z,37.50
2018-02-18T00:44:29.178Z,38.27
2018-02-18T00:46:55.569Z,36.27
2018-02-18T00:49:21.948Z,36.73
2018-02-18T00:51:48.549Z,36.20
2018-02-18T00:54:14.942Z,35.20
2018-02-18T00:56:41.373Z,34.13
2018-02-18T00:59:07.749Z,32.80
2018-02-18T01:01:34.185Z,33.53
2018-02-18T01:04:00.617Z,33.37
2018-02-18T01:06:27.038Z,32.83
2018-02-18T01:08:53.458Z,32.90
2018-02-18T01:11:19.870Z,33.37
2018-02-18T01:13:46.306Z,33.70
2018-02-18T01:16:12.702Z,34.07
2018-02-18T01:18:39.106Z,33.70
2018-02-18T01:21:05.503Z,33.80
2018-02-18T01:23:31.872Z,33.47
2018-02-18T01:25:58.254Z,31.00
2018-02-18T01:28:24.666Z,32.37
2018-02-18T01:30:51.098Z,30.97
2018-02-18T01:33:17.518Z,31.20
2018-02-18T01:35:43.922Z,31.20
2018-02-18T01:38:10.321Z,30.77
2018-02-18T01:40:36.673Z,32.53
2018-02-18T01:43:03.046Z,31.57
2018-02-18T01:45:29.477Z,31.97
2018-02-18T01:47:55.829Z,33.83
2018-02-18T01:50:34.441Z,31.57
2018-02-18T01:53:00.817Z,30.67
2018-02-18T01:55:27.205Z,31.37
2018-02-18T01:57:53.539Z,30.47
2018-02-18T02:00:19.933Z,31.47
2018-02-18T02:02:46.296Z,30.73
2018-02-18T02:05:12.632Z,31.63
2018-02-18T02:07:38.998Z,29.03
2018-02-18T02:10:05.370Z,28.77
2018-02-18T02:12:31.719Z,29.17
2018-02-18T02:14:58.160Z,31.47
2018-02-18T02:17:24.501Z,30.27
2018-02-18T02:19:50.875Z,30.80
2018-02-18T02:22:17.257Z,29.90
2018-02-18T02:24:43.610Z,29.33
2018-02-18T02:27:09.996Z,29.17
2018-02-18T02:29:36.350Z,29.10
2018-02-18T02:32:02.753Z,28.50
2018-02-18T02:34:29.162Z,28.23
2018-02-18T02:36:55.558Z,28.30
2018-02-18T02:39:21.982Z,27.10
2018-02-18T02:41:48.370Z,27.20
2018-02-18T02:44:14.717Z,25.63
2018-02-18T02:46:41.073Z,26.20
2018-02-18T02:49:07.470Z,25.43
2018-02-18T02:51:33.846Z,25.67
2018-02-18T02:54:00.190Z,23.90
2018-02-18T02:56:26.562Z,24.07
2018-02-18T02:58:52.942Z,23.27
2018-02-18T03:01:19.278Z,24.27
2018-02-18T03:03:45.642Z,23.97
2018-02-18T03:06:12.086Z,23.67
2018-02-18T03:08:38.424Z,22.90
2018-02-18T03:11:04.761Z,22.23
2018-02-18T03:13:31.148Z,23.83
2018-02-18T03:15:57.507Z,22.97
2018-02-18T03:18:23.921Z,23.37
2018-02-18T03:20:50.298Z,23.00
2018-02-18T03:23:16.654Z,20.43
2018-02-18T03:25:43.006Z,22.83
2018-02-18T03:28:09.422Z,21.47
2018-02-18T03:30:35.768Z,22.33
2018-02-18T03:33:02.129Z,21.53
2018-02-18T03:35:28.535Z,21.23
2018-02-18T03:37:54.886Z,21.07
2018-02-18T03:40:21.250Z,21.13
2018-02-18T03:42:47.658Z,22.13
2018-02-18T03:45:14.014Z,20.57
2018-02-18T03:47:40.381Z,20.37
2018-02-18T03:50:06.775Z,20.20
2018-02-18T03:52:33.238Z,19.27
2018-02-18T03:54:59.650Z,19.63
2018-02-18T03:57:26.002Z,19.27
2018-02-18T03:59:52.414Z,20.23
2018-02-18T04:02:18.846Z,21.20
2018-02-18T04:04:45.205Z,21.77
2018-02-18T04:07:11.578Z,21.13
2018-02-18T04:09:37.918Z,21.97
2018-02-18T04:12:04.249Z,21.60
2018-02-18T04:14:30.645Z,23.40
2018-02-18T04:16:56.965Z,22.37
2018-02-18T04:19:23.290Z,20.93
2018-02-18T04:21:49.674Z,22.53
2018-02-18T04:24:16.157Z,22.17
2018-02-18T04:26:42.653Z,21.17
2018-02-18T04:29:08.985Z,22.57
2018-02-18T04:31:35.368Z,21.50
2018-02-18T04:34:01.737Z,22.33
2018-02-18T04:36:28.085Z,23.07
2018-02-18T04:38:54.601Z,26.53
2018-02-18T04:41:20.973Z,23.43
2018-02-18T04:43:47.329Z,21.30
2018-02-18T04:46:13.655Z,22.40
2018-02-18T04:48:40.012Z,22.30
2018-02-18T04:51:06.510Z,21.93
2018-02-18T04:53:32.966Z,20.67
2018-02-18T04:55:59.296Z,20.53
2018-02-18T04:58:25.810Z,20.50
2018-02-18T05:00:52.197Z,21.00
2018-02-18T05:03:18.550Z,19.50
2018-02-18T05:05:44.926Z,20.77
2018-02-18T05:08:11.341Z,20.47
2018-02-18T05:10:37.673Z,21.73
2018-02-18T05:13:04.058Z,23.87
2018-02-18T05:15:30.430Z,22.87
2018-02-18T05:17:56.787Z,24.03
2018-02-18T05:20:23.142Z,25.13
2018-02-18T05:22:49.569Z,25.80
2018-02-18T05:25:15.905Z,26.40
2018-02-18T05:27:42.270Z,27.40
2018-02-18T05:30:08.673Z,28.10
2018-02-18T05:32:35.897Z,30.07
2018-02-18T05:35:02.246Z,29.57
2018-02-18T05:37:28.637Z,31.27
2018-02-18T05:39:54.977Z,31.20
2018-02-18T05:42:21.477Z,31.67
2018-02-18T05:44:47.814Z,32.50
2018-02-18T05:47:14.214Z,29.13
2018-02-18T05:49:40.578Z,27.20
2018-02-18T05:52:06.961Z,27.77
2018-02-18T05:54:33.309Z,31.20
2018-02-18T05:56:59.728Z,38.00
2018-02-18T05:59:26.109Z,34.43
2018-02-18T06:01:52.547Z,34.97
2018-02-18T06:04:18.911Z,34.53
2018-02-18T06:06:45.326Z,35.10
2018-02-18T06:09:11.658Z,34.83
2018-02-18T06:11:38.050Z,35.33
2018-02-18T06:14:04.433Z,35.73
2018-02-18T06:16:30.770Z,38.77
2018-02-18T06:18:57.166Z,39.73
2018-02-18T06:21:23.690Z,39.20
2018-02-18T06:23:50.026Z,39.43
2018-02-18T06:26:16.357Z,39.50
2018-02-18T06:28:42.738Z,42.00
2018-02-18T06:31:09.107Z,48.73
2018-02-18T06:33:35.446Z,48.90
2018-02-18T06:36:01.852Z,45.20
2018-02-18T06:38:28.191Z,39.87
2018-02-18T06:40:54.578Z,37.97
2018-02-18T06:43:21.019Z,36.80
2018-02-18T06:45:47.434Z,36.63
2018-02-18T06:48:13.853Z,35.43
2018-02-18T06:50:40.454Z,34.13
2018-02-18T06:53:07.101Z,32.43
2018-02-18T06:55:33.462Z,31.23
2018-02-18T06:57:59.817Z,30.50
2018-02-18T07:00:26.249Z,31.50
2018-02-18T07:02:52.597Z,32.37
2018-02-18T07:05:18.930Z,33.07
2018-02-18T07:07:45.294Z,34.23
2018-02-18T07:10:11.621Z,33.70
2018-02-18T07:12:37.958Z,34.43
2018-02-18T07:15:04.373Z,35.07
2018-02-18T07:17:30.709Z,33.73
2018-02-18T07:19:57.118Z,37.23
2018-02-18T07:22:23.674Z,42.83
2018-02-18T07:24:50.030Z,43.50
2018-02-18T07:27:16.420Z,41.30
2018-02-18T07:29:42.829Z,44.93
2018-02-18T07:32:09.233Z,48.40
2018-02-18T07:34:35.597Z,54.17
2018-02-18T07:37:01.998Z,51.77
2018-02-18T07:39:28.346Z,53.37
2018-02-18T07:41:54.705Z,56.97
2018-02-18T07:44:21.102Z,63.33
2018-02-18T07:46:47.493Z,62.30
2018-02-18T07:49:13.843Z,68.73
2018-02-18T07:51:40.241Z,69.10
2018-02-18T07:54:06.568Z,75.73
2018-02-18T07:56:32.914Z,106.97
2018-02-18T07:58:59.286Z,112.47
2018-02-18T08:01:25.686Z,90.47
2018-02-18T08:03:52.052Z,72.47
2018-02-18T08:06:18.478Z,62.20
2018-02-18T08:08:44.814Z,59.00
2018-02-18T08:11:11.141Z,60.23
2018-02-18T08:13:37.553Z,99.87
2018-02-18T08:16:03.894Z,85.13
2018-02-18T08:18:30.347Z,60.73
2018-02-18T08:20:56.728Z,47.57
2018-02-18T08:23:23.083Z,50.63
2018-02-18T08:25:49.475Z,39.27
2018-02-18T08:28:15.918Z,36.50
2018-02-18T08:30:42.270Z,36.47
2018-02-18T08:33:08.606Z,34.97
2018-02-18T08:35:35.250Z,32.70
2018-02-18T08:38:01.600Z,37.03
2018-02-18T08:40:27.926Z,34.50
2018-02-18T08:42:54.378Z,32.10
2018-02-18T08:45:20.724Z,33.10
2018-02-18T08:47:47.082Z,33.53
2018-02-18T08:50:13.443Z,33.67
2018-02-18T08:52:40.170Z,31.83
2018-02-18T08:55:06.518Z,34.63
2018-02-18T08:57:32.912Z,34.93
2018-02-18T08:59:59.450Z,35.77
2018-02-18T09:02:25.807Z,34.67
2018-02-18T09:04:52.223Z,33.03
2018-02-18T09:07:18.555Z,32.57
2018-02-18T09:09:44.934Z,33.53
2018-02-18T09:12:11.330Z,32.53
2018-02-18T09:14:37.686Z,29.67
2018-02-18T09:17:04.147Z,26.53
2018-02-18T09:19:30.520Z,28.57
2018-02-18T09:21:56.895Z,28.40
2018-02-18T09:24:23.354Z,25.67
2018-02-18T09:26:49.803Z,24.83
2018-02-18T09:29:16.142Z,29.67
2018-02-18T09:31:42.478Z,32.13
2018-02-18T09:34:08.875Z,35.20
2018-02-18T09:36:35.225Z,31.53
2018-02-18T09:39:01.747Z,35.47
2018-02-18T09:41:28.202Z,30.90
2018-02-18T09:43:54.541Z,28.33
2018-02-18T09:46:20.900Z,28.07
2018-02-18T09:48:47.302Z,25.80
2018-02-18T09:51:13.662Z,28.87
2018-02-18T09:53:40.026Z,29.50
2018-02-18T09:58:39.358Z,26.43
2018-02-18T10:01:05.707Z,27.50
2018-02-18T10:03:32.082Z,26.90
2018-02-18T10:05:58.450Z,28.47
2018-02-18T10:08:24.830Z,27.80
2018-02-18T10:10:51.280Z,25.93
2018-02-18T10:13:17.649Z,26.67
2018-02-18T10:15:44.010Z,26.80
2018-02-18T10:18:10.490Z,27.60
2018-02-18T10:20:36.861Z,28.03
2018-02-18T10:23:03.239Z,29.20
2018-02-18T10:25:29.694Z,29.87
2018-02-18T10:27:56.041Z,26.93
2018-02-18T10:30:22.393Z,26.23
2018-02-18T10:32:48.779Z,27.00
2018-02-18T10:35:15.129Z,26.30
2018-02-18T10:37:41.493Z,24.90
2018-02-18T10:40:07.879Z,23.20
2018-02-18T10:42:34.237Z,24.67
2018-02-18T10:45:00.583Z,23.37
2018-02-18T10:47:26.954Z,28.07
2018-02-18T10:49:53.353Z,23.33
2018-02-18T10:52:19.768Z,23.93
2018-02-18T10:54:46.182Z,25.77
2018-02-18T10:57:12.522Z,25.13
2018-02-18T10:59:38.875Z,23.73
2018-02-18T11:02:05.286Z,24.53
2018-02-18T11:04:31.699Z,24.20
2018-02-18T11:06:58.081Z,22.63
2018-02-18T11:09:24.456Z,25.33
2018-02-18T11:11:50.817Z,26.10
2018-02-18T11:14:17.185Z,21.07
2018-02-18T11:16:43.573Z,22.27
2018-02-18T11:19:09.941Z,20.00
2018-02-18T11:21:36.302Z,21.40
2018-02-18T11:24:02.739Z,19.83
2018-02-18T11:26:29.089Z,22.40
2018-02-18T11:28:55.456Z,21.13
2018-02-18T11:31:21.845Z,25.67
2018-02-18T11:33:48.225Z,25.30
2018-02-18T11:36:14.613Z,24.10
2018-02-18T11:38:41.009Z,20.67
2018-02-18T11:41:07.378Z,21.53
2018-02-18T11:43:33.707Z,21.73
2018-02-18T11:46:00.106Z,20.90
2018-02-18T11:48:26.524Z,21.80
2018-02-18T11:50:52.885Z,29.20
2018-02-18T11:53:19.272Z,23.43
2018-02-18T11:55:45.650Z,23.47
2018-02-18T11:58:12.078Z,23.40
2018-02-18T12:00:38.498Z,24.60
2018-02-18T12:03:04.885Z,22.57
2018-02-18T12:05:31.241Z,21.07
2018-02-18T12:07:57.608Z,21.30
2018-02-18T12:10:23.978Z,28.43
2018-02-18T12:12:50.318Z,20.00
2018-02-18T12:15:16.677Z,22.67
2018-02-18T12:17:43.034Z,21.07
2018-02-18T12:20:09.444Z,21.73
2018-02-18T12:22:35.977Z,23.93
2018-02-18T12:25:02.414Z,22.30
2018-02-18T12:27:28.771Z,24.37
2018-02-18T12:29:55.122Z,22.90
2018-02-18T12:32:21.579Z,24.47
2018-02-18T12:34:47.962Z,26.80
2018-02-18T12:37:14.318Z,25.43
2018-02-18T12:39:40.729Z,27.13
2018-02-18T12:42:07.102Z,25.50
2018-02-18T12:44:33.461Z,30.77
2018-02-18T12:46:59.903Z,28.73
2018-02-18T12:49:26.234Z,24.33
2018-02-18T12:51:52.634Z,25.77
2018-02-18T12:54:19.042Z,24.43
2018-02-18T12:56:45.405Z,28.03
2018-02-18T12:59:11.738Z,26.07
2018-02-18T13:01:38.127Z,26.43
2018-02-18T13:04:04.489Z,25.93
2018-02-18T13:06:30.840Z,25.37
2018-02-18T13:08:57.276Z,25.47
2018-02-18T13:11:23.637Z,23.03
2018-02-18T13:13:49.999Z,24.03
2018-02-18T13:16:16.381Z,24.13
2018-02-18T13:18:42.750Z,24.47
2018-02-18T13:21:09.138Z,24.90
2018-02-18T13:23:35.539Z,25.37
2018-02-18T13:26:01.887Z,24.37
2018-02-18T13:28:28.231Z,23.50
2018-02-18T13:30:54.619Z,24.63
2018-02-18T13:33:20.974Z,25.10
2018-02-18T13:35:47.312Z,24.90
2018-02-18T13:38:13.671Z,23.67
2018-02-18T13:40:40.066Z,23.90
2018-02-18T13:43:06.434Z,23.90
2018-02-18T13:45:32.823Z,24.93
2018-02-18T13:47:59.212Z,24.90
2018-02-18T13:50:25.698Z,25.73
2018-02-18T13:52:52.051Z,24.00
2018-02-18T13:55:18.439Z,24.03
2018-02-18T13:57:44.792Z,24.27
2018-02-18T14:00:11.210Z,24.10
2018-02-18T14:02:37.558Z,24.33
2018-02-18T14:05:03.938Z,26.40
2018-02-18T14:07:30.299Z,26.00
2018-02-18T14:09:56.649Z,27.00
2018-02-18T14:12:23.109Z,27.00
2018-02-18T14:14:49.449Z,27.30
2018-02-18T14:17:15.825Z,28.90
2018-02-18T14:19:42.222Z,24.33
2018-02-18T14:22:08.573Z,25.37
2018-02-18T14:24:35.037Z,22.57
2018-02-18T14:27:01.442Z,23.77
2018-02-18T14:29:27.810Z,24.30
2018-02-18T14:31:54.325Z,23.37
2018-02-18T14:34:20.701Z,23.57
2018-02-18T14:36:47.109Z,22.17
2018-02-18T14:39:13.496Z,23.40
2018-02-18T14:41:51.969Z,25.20
2018-02-18T14:44:30.487Z,24.10
2018-02-18T15:00:20.413Z,30.13
2018-02-18T15:02:46.801Z,33.53
2018-02-18T15:05:13.185Z,32.03
2018-02-18T15:07:39.668Z,34.10
2018-02-18T15:10:06.181Z,28.67
2018-02-18T15:12:32.594Z,30.57
2018-02-18T15:14:59.186Z,30.63
2018-02-18T15:17:25.569Z,31.67
2018-02-18T15:19:51.957Z,36.30
2018-02-18T15:22:18.413Z,33.77
2018-02-18T15:24:44.806Z,34.87
2018-02-18T15:27:11.198Z,34.80
2018-02-18T15:29:37.598Z,37.27
2018-02-18T15:32:04.014Z,34.57
2018-02-18T15:34:30.412Z,33.67
2018-02-18T15:36:56.886Z,33.03
2018-02-18T15:39:23.282Z,31.83
2018-02-18T15:41:49.634Z,32.10
2018-02-18T15:44:16.042Z,33.20
2018-02-18T15:46:42.459Z,37.60
2018-02-18T15:49:08.829Z,35.20
2018-02-18T15:51:35.297Z,36.77
2018-02-18T15:54:01.694Z,39.00
2018-02-18T15:56:28.061Z,39.80
2018-02-18T15:58:54.506Z,44.03
2018-02-18T16:01:20.906Z,45.07
2018-02-18T16:03:47.254Z,46.67
2018-02-18T16:06:13.680Z,48.00
2018-02-18T16:08:40.026Z,50.60
2018-02-18T16:11:06.421Z,50.70
2018-02-18T16:13:32.802Z,51.60
2018-02-18T16:15:59.341Z,56.03
2018-02-18T16:18:25.697Z,54.13
2018-02-18T16:20:52.217Z,52.97
2018-02-18T16:23:18.641Z,53.47
2018-02-18T16:25:45.003Z,56.53
2018-02-18T16:28:11.478Z,55.47
2018-02-18T16:30:37.858Z,53.27
2018-02-18T16:33:04.261Z,54.57
2018-02-18T16:35:30.687Z,57.57
2018-02-18T16:37:57.031Z,65.77
2018-02-18T16:40:23.701Z,74.63
2018-02-18T16:42:50.114Z,81.53
2018-02-18T16:45:16.505Z,82.60
2018-02-18T16:47:42.858Z,85.33
2018-02-18T16:50:09.237Z,81.13
2018-02-18T16:52:35.593Z,74.77
2018-02-18T16:55:01.961Z,76.33
2018-02-18T16:57:28.388Z,81.93
2018-02-18T16:59:54.766Z,92.87
2018-02-18T17:02:21.126Z,92.07
2018-02-18T17:04:47.498Z,95.53
2018-02-18T17:07:13.854Z,106.73
2018-02-18T17:09:40.261Z,109.27
2018-02-18T17:12:06.650Z,107.03
2018-02-18T17:14:33.019Z,111.33
2018-02-18T17:16:59.500Z,115.03
2018-02-18T17:19:25.898Z,118.47
2018-02-18T17:21:52.309Z,120.43
2018-02-18T17:24:18.894Z,132.00
2018-02-18T17:26:45.382Z,139.83
2018-02-18T17:29:11.761Z,138.07
2018-02-18T17:31:38.181Z,136.87
2018-02-18T17:34:04.564Z,139.33
2018-02-18T17:36:30.973Z,134.27
2018-02-18T17:38:57.381Z,124.23
2018-02-18T17:41:23.757Z,118.90
2018-02-18T17:43:50.148Z,118.37
2018-02-18T17:46:16.601Z,117.67
2018-02-18T17:48:42.973Z,117.67
2018-02-18T17:51:09.431Z,118.60
2018-02-18T17:53:35.862Z,117.33
2018-02-18T17:56:02.213Z,113.27
2018-02-18T17:58:28.578Z,117.43
2018-02-18T18:00:54.985Z,129.57
2018-02-18T18:03:21.647Z,135.70
2018-02-18T18:05:48.045Z,142.03
2018-02-18T18:08:14.478Z,145.47
2018-02-18T18:10:40.936Z,142.77
2018-02-18T18:13:07.298Z,134.63
2018-02-18T18:15:33.885Z,135.30
2018-02-18T18:18:00.352Z,131.87
2018-02-18T18:20:26.710Z,123.00
2018-02-18T18:22:53.243Z,120.67
2018-02-18T18:25:26.548Z,118.60
2018-02-18T18:27:52.962Z,120.50
2018-02-18T18:30:19.506Z,126.63
2018-02-18T18:32:45.878Z,130.17
2018-02-18T18:35:12.290Z,134.47
2018-02-18T18:37:38.872Z,145.60
2018-02-18T18:40:05.309Z,155.37
2018-02-18T18:42:31.797Z,139.83
2018-02-18T18:44:58.178Z,128.07
2018-02-18T18:47:24.614Z,119.93
2018-02-18T18:49:51.037Z,112.30
2018-02-18T18:52:17.403Z,115.33
2018-02-18T18:54:45.063Z,115.47
2018-02-18T18:57:12.439Z,111.27
2018-02-18T18:59:38.846Z,114.10
2018-02-18T19:02:05.225Z,107.83
2018-02-18T19:04:31.742Z,105.07
2018-02-18T19:06:58.117Z,102.87
2018-02-18T19:09:24.617Z,100.47
2018-02-18T19:11:51.171Z,101.50
2018-02-18T19:14:18.618Z,95.03
2018-02-18T19:16:45.390Z,92.07
2018-02-18T19:19:12.134Z,86.23
2018-02-18T19:21:39.308Z,86.57
2018-02-18T19:24:06.310Z,81.47
2018-02-18T19:26:33.957Z,78.80
2018-02-18T19:29:00.545Z,79.67
2018-02-18T19:31:27.046Z,79.80
2018-02-18T19:33:55.520Z,79.80
2018-02-18T19:36:21.953Z,85.23
2018-02-18T19:38:48.303Z,91.97
2018-02-18T19:41:14.715Z,91.70
2018-02-18T19:43:41.077Z,94.77
2018-02-18T19:46:07.422Z,98.50
2018-02-18T19:48:33.838Z,102.63
2018-02-18T19:51:00.197Z,104.47
2018-02-18T19:53:26.658Z,108.70
2018-02-18T19:55:53.070Z,112.63
2018-02-18T19:58:19.419Z,108.43
2018-02-18T20:00:45.789Z,103.63
2018-02-18T20:03:12.250Z,100.67
2018-02-18T20:05:38.695Z,99.20
2018-02-18T20:08:05.095Z,96.60
2018-02-18T20:10:31.501Z,95.63
2018-02-18T20:12:57.890Z,97.97
2018-02-18T20:15:24.265Z,103.70
2018-02-18T20:17:50.672Z,98.53
2018-02-18T20:20:17.059Z,95.40
2018-02-18T20:22:43.422Z,95.70
2018-02-18T20:25:09.878Z,96.60
2018-02-18T20:27:36.261Z,90.10
2018-02-18T20:30:02.710Z,93.50
2018-02-18T20:32:29.122Z,92.13
2018-02-18T20:34:55.491Z,92.00
2018-02-18T20:37:21.926Z,88.90
2018-02-18T20:39:48.349Z,87.47
2018-02-18T20:42:14.752Z,92.10
2018-02-18T20:44:41.110Z,89.03
2018-02-18T20:47:07.618Z,90.97
2018-02-18T20:49:34.130Z,90.90
2018-02-18T20:52:00.485Z,87.53
2018-02-18T20:54:26.893Z,87.87
2018-02-18T20:56:53.233Z,88.73
2018-02-18T20:59:19.597Z,86.50
2018-02-18T21:01:46.074Z,86.53
2018-02-18T21:04:12.446Z,86.80
2018-02-18T21:06:38.813Z,85.17
2018-02-18T21:09:05.212Z,83.17
2018-02-18T21:11:31.582Z,83.70
2018-02-18T21:13:58.054Z,86.37
2018-02-18T21:16:24.423Z,84.47
2018-02-18T21:18:50.769Z,85.93
2018-02-18T21:21:17.194Z,83.20
2018-02-18T21:23:43.562Z,81.37
2018-02-18T21:26:10.015Z,78.53
2018-02-18T21:28:36.502Z,74.73
2018-02-18T21:31:02.891Z,76.77
2018-02-18T21:33:29.289Z,76.37
2018-02-18T21:35:55.953Z,76.97
2018-02-18T21:38:22.333Z,73.93
2018-02-18T21:40:48.717Z,70.87
2018-02-18T21:43:15.133Z,71.47
2018-02-18T21:45:41.490Z,73.97
2018-02-18T21:48:07.841Z,73.93
2018-02-18T21:50:34.260Z,72.03
2018-02-18T21:53:00.638Z,72.40
2018-02-18T21:55:27.010Z,71.33
2018-02-18T21:57:53.545Z,74.13
2018-02-18T22:00:19.910Z,69.27
2018-02-18T22:02:46.357Z,70.37
2018-02-18T22:05:12.831Z,72.03
2018-02-18T22:07:39.185Z,67.30
2018-02-18T22:10:05.557Z,66.43
2018-02-18T22:12:31.973Z,64.20
2018-02-18T22:14:58.336Z,62.90
2018-02-18T22:17:24.722Z,66.33
2018-02-18T22:19:51.077Z,66.93
2018-02-18T22:22:17.442Z,64.67
2018-02-18T22:24:43.862Z,65.27
2018-02-18T22:27:10.216Z,63.30
2018-02-18T22:29:36.568Z,63.67
2018-02-18T22:32:02.988Z,61.97
2018-02-18T22:34:29.385Z,62.13
2018-02-18T22:36:55.745Z,58.47
2018-02-18T22:39:22.148Z,57.63
2018-02-18T22:41:48.511Z,53.53
2018-02-18T22:44:14.889Z,53.70
2018-02-18T22:46:41.272Z,55.27
2018-02-18T22:49:07.630Z,51.53
2018-02-18T22:51:34.030Z,53.57
2018-02-18T22:54:00.393Z,52.50
2018-02-18T22:56:26.738Z,51.53
2018-02-18T22:58:53.137Z,48.90
2018-02-18T23:01:19.648Z,49.07
2018-02-18T23:03:46.097Z,48.13
2018-02-18T23:06:12.448Z,52.17
2018-02-18T23:08:38.803Z,52.37
2018-02-18T23:11:05.147Z,54.10
2018-02-18T23:13:31.547Z,53.37
2018-02-18T23:29:37.382Z,50.07
2018-02-18T23:32:03.752Z,52.23
2018-02-18T23:34:30.105Z,53.50
2018-02-18T23:36:56.509Z,52.43
2018-02-18T23:39:22.869Z,50.80
2018-02-18T23:41:49.415Z,52.43
2018-02-18T23:44:15.832Z,51.17
2018-02-18T23:46:42.216Z,50.03
2018-02-18T23:49:08.587Z,50.77
2018-02-18T23:51:35.003Z,46.83
2018-02-18T23:54:01.358Z,44.83
2018-02-18T23:56:27.722Z,43.97
2018-02-18T23:58:54.117Z,42.83
